Airfield :
LOGIN :

Register | Disclaimer

   EN    FR    IT 

 










Legend :    VFR   Marginal VFR   IFR   Intensive IFR   Very Intensive IFR
Visi :
Ceiling :
>= 8 km
>= 3000ft
5 to 8 km
1000 to 3000 ft
1500m to 5 km
500 to 1000 ft
800 to 1500m
200 to 500 ft
< 800m
< 200 ft
Symbols :   Thunderstorms  Fog  Heavy snow  Heavy precipitations  Wind > 20 kt
SIGMETs :     Misc.  Thunderstorms  Icing  Turbulence  Mountain Waves  Volcanic Ashes







- Airport Elevation : 236 ft
- IATA code : MMX


ESMS - Malmö Sturup

CURRENT METAR :
  • 290450Z 09011KT CAVOK 05/02 Q1013

EXPIRED METARs :
  • 290420Z 09010KT CAVOK 05/03 Q1013
  • 290350Z 09010KT 9999 -RA FEW044 05/03 Q1013
  • 290320Z 09009KT CAVOK 04/03 Q1013
  • 290250Z 10011KT CAVOK 05/03 Q1013
  • 290220Z 10010KT 9999 BKN080 05/03 Q1013

TAF AMD TAF ESMS
Valid from the 29 at 01:00 until the 30 at 00:00 UTC


290056Z 2901/2924 09010KT 9999 SCT020
TEMPO 2901/2910 4000 BR -SHRA BKN007 SCT020TCU
TEMPO 2910/2921 SHRA SCT015CB
No reported NOTAMs for that airfield.



MET'MAP, your aeronautical weather chart ! - Copyright ORBIFLY December 2007 - Disclaimer

ORBIFLY MET'MAP TEAM :

Programming & Development : Alexandra Zaïnal
Concept & Development : Baudouin d'Aumeries
Co-Development & Prog : Marc-Olivier Méhu
Technical & hardware support : Manuel Goepfert

Contact : metmap@orbifly.com




SOURCES & CREDITS :

   NOAA